sensor_id;sensor_type;location;lat;lon;timestamp;pressure;altitude;pressure_sealevel;temperature;humidity
36598;BME280;22607;49.550;11.940;2023-04-05T00:01:56;97450.19;;;0.01;73.95
36598;BME280;22607;49.550;11.940;2023-04-05T00:04:23;97450.16;;;-0.14;75.17
36598;BME280;22607;49.550;11.940;2023-04-05T00:06:51;97442.75;;;-0.35;77.02
36598;BME280;22607;49.550;11.940;2023-04-05T00:09:19;97449.78;;;-0.22;77.24
36598;BME280;22607;49.550;11.940;2023-04-05T00:11:52;97436.59;;;-0.32;77.95
36598;BME280;22607;49.550;11.940;2023-04-05T00:14:18;97436.34;;;-0.13;76.44
36598;BME280;22607;49.550;11.940;2023-04-05T00:16:45;97443.88;;;-0.24;76.61
36598;BME280;22607;49.550;11.940;2023-04-05T00:19:11;97439.06;;;-0.31;76.66
36598;BME280;22607;49.550;11.940;2023-04-05T00:21:38;97434.66;;;-0.29;77.48
36598;BME280;22607;49.550;11.940;2023-04-05T00:24:06;97434.34;;;-0.38;77.40
36598;BME280;22607;49.550;11.940;2023-04-05T00:26:33;97433.53;;;-0.39;75.70
36598;BME280;22607;49.550;11.940;2023-04-05T00:29:01;97433.94;;;-0.47;77.46
36598;BME280;22607;49.550;11.940;2023-04-05T00:31:28;97430.56;;;-0.47;76.41
36598;BME280;22607;49.550;11.940;2023-04-05T00:33:55;97424.16;;;-0.56;76.09
36598;BME280;22607;49.550;11.940;2023-04-05T00:36:22;97430.56;;;-0.47;77.31
36598;BME280;22607;49.550;11.940;2023-04-05T00:38:49;97429.59;;;-0.61;78.17
36598;BME280;22607;49.550;11.940;2023-04-05T00:41:15;97420.75;;;-0.57;79.68
36598;BME280;22607;49.550;11.940;2023-04-05T00:43:42;97417.94;;;-0.68;79.71
36598;BME280;22607;49.550;11.940;2023-04-05T00:46:09;97422.72;;;-0.76;79.40
36598;BME280;22607;49.550;11.940;2023-04-05T00:48:37;97420.09;;;-0.91;80.81
36598;BME280;22607;49.550;11.940;2023-04-05T00:51:04;97414.19;;;-1.09;81.14
36598;BME280;22607;49.550;11.940;2023-04-05T00:53:36;97427.00;;;-1.08;82.95
36598;BME280;22607;49.550;11.940;2023-04-05T00:56:03;97424.66;;;-1.12;84.03
36598;BME280;22607;49.550;11.940;2023-04-05T00:58:30;97420.63;;;-1.33;84.35
36598;BME280;22607;49.550;11.940;2023-04-05T01:01:06;97417.69;;;-0.94;83.15
36598;BME280;22607;49.550;11.940;2023-04-05T01:03:42;97412.03;;;-1.01;81.57
36598;BME280;22607;49.550;11.940;2023-04-05T01:06:16;97419.75;;;-1.01;84.03
36598;BME280;22607;49.550;11.940;2023-04-05T01:09:13;97412.88;;;-1.16;82.33
36598;BME280;22607;49.550;11.940;2023-04-05T01:11:44;97411.69;;;-1.11;82.90
36598;BME280;22607;49.550;11.940;2023-04-05T01:14:12;97409.63;;;-1.04;80.55
36598;BME280;22607;49.550;11.940;2023-04-05T01:16:39;97403.69;;;-0.90;80.43
36598;BME280;22607;49.550;11.940;2023-04-05T01:19:06;97396.19;;;-0.78;76.91
36598;BME280;22607;49.550;11.940;2023-04-05T01:21:47;97397.78;;;-0.92;80.70
36598;BME280;22607;49.550;11.940;2023-04-05T01:27:42;97396.16;;;-1.09;82.86
36598;BME280;22607;49.550;11.940;2023-04-05T01:30:19;97384.50;;;-1.00;82.50
36598;BME280;22607;49.550;11.940;2023-04-05T01:35:38;97393.72;;;-1.12;80.99
36598;BME280;22607;49.550;11.940;2023-04-05T01:38:10;97382.63;;;-1.29;82.18
36598;BME280;22607;49.550;11.940;2023-04-05T01:40:40;97392.28;;;-1.33;82.14
36598;BME280;22607;49.550;11.940;2023-04-05T01:43:17;97383.47;;;-1.28;82.46
36598;BME280;22607;49.550;11.940;2023-04-05T01:45:44;97387.28;;;-1.36;84.95
36598;BME280;22607;49.550;11.940;2023-04-05T01:48:12;97390.94;;;-1.40;85.91
36598;BME280;22607;49.550;11.940;2023-04-05T01:50:39;97382.78;;;-1.48;86.53
36598;BME280;22607;49.550;11.940;2023-04-05T01:53:06;97381.28;;;-1.52;87.12
36598;BME280;22607;49.550;11.940;2023-04-05T01:55:33;97383.47;;;-1.61;86.97
36598;BME280;22607;49.550;11.940;2023-04-05T01:58:00;97378.31;;;-1.61;89.71
36598;BME280;22607;49.550;11.940;2023-04-05T02:00:27;97390.09;;;-1.56;90.87
36598;BME280;22607;49.550;11.940;2023-04-05T02:02:53;97385.28;;;-1.63;88.72
36598;BME280;22607;49.550;11.940;2023-04-05T02:05:20;97377.03;;;-1.69;88.31
36598;BME280;22607;49.550;11.940;2023-04-05T02:07:46;97379.63;;;-1.69;86.89
36598;BME280;22607;49.550;11.940;2023-04-05T02:10:14;97372.06;;;-1.73;86.75
36598;BME280;22607;49.550;11.940;2023-04-05T02:12:41;97376.38;;;-1.73;89.73
36598;BME280;22607;49.550;11.940;2023-04-05T02:15:08;97370.47;;;-1.75;88.16
36598;BME280;22607;49.550;11.940;2023-04-05T02:17:34;97377.13;;;-1.71;87.39
36598;BME280;22607;49.550;11.940;2023-04-05T02:20:08;97377.59;;;-1.80;88.80
36598;BME280;22607;49.550;11.940;2023-04-05T02:22:39;97376.09;;;-1.85;89.72
36598;BME280;22607;49.550;11.940;2023-04-05T02:25:07;97369.63;;;-1.92;91.04
36598;BME280;22607;49.550;11.940;2023-04-05T02:27:37;97372.78;;;-1.87;89.61
36598;BME280;22607;49.550;11.940;2023-04-05T02:30:04;97362.06;;;-1.95;96.04
36598;BME280;22607;49.550;11.940;2023-04-05T02:32:31;97352.66;;;-1.96;97.39
36598;BME280;22607;49.550;11.940;2023-04-05T02:34:57;97363.16;;;-1.83;95.48
36598;BME280;22607;49.550;11.940;2023-04-05T02:37:24;97359.84;;;-1.69;91.24
36598;BME280;22607;49.550;11.940;2023-04-05T02:39:52;97363.16;;;-1.67;91.49
36598;BME280;22607;49.550;11.940;2023-04-05T02:42:19;97358.84;;;-1.66;92.40
36598;BME280;22607;49.550;11.940;2023-04-05T02:44:45;97357.84;;;-1.80;94.57
36598;BME280;22607;49.550;11.940;2023-04-05T02:47:12;97360.50;;;-1.81;95.07
36598;BME280;22607;49.550;11.940;2023-04-05T02:49:42;97356.41;;;-1.86;93.99
36598;BME280;22607;49.550;11.940;2023-04-05T02:52:09;97356.31;;;-2.00;96.99
36598;BME280;22607;49.550;11.940;2023-04-05T02:54:35;97362.03;;;-2.11;97.15
36598;BME280;22607;49.550;11.940;2023-04-05T02:57:02;97355.81;;;-2.07;97.50
36598;BME280;22607;49.550;11.940;2023-04-05T02:59:29;97353.00;;;-2.02;95.02
36598;BME280;22607;49.550;11.940;2023-04-05T03:01:56;97344.22;;;-1.98;91.86
36598;BME280;22607;49.550;11.940;2023-04-05T03:04:22;97345.34;;;-2.04;91.05
36598;BME280;22607;49.550;11.940;2023-04-05T03:06:51;97351.91;;;-2.14;92.93
36598;BME280;22607;49.550;11.940;2023-04-05T03:09:20;97333.16;;;-2.34;93.04
36598;BME280;22607;49.550;11.940;2023-04-05T03:11:47;97351.41;;;-2.39;94.40
36598;BME280;22607;49.550;11.940;2023-04-05T03:14:14;97350.81;;;-2.44;93.04
36598;BME280;22607;49.550;11.940;2023-04-05T03:16:40;97354.38;;;-2.46;93.84
36598;BME280;22607;49.550;11.940;2023-04-05T03:19:07;97343.91;;;-2.43;92.18
36598;BME280;22607;49.550;11.940;2023-04-05T03:21:34;97345.28;;;-2.36;93.22
36598;BME280;22607;49.550;11.940;2023-04-05T03:24:00;97346.78;;;-2.32;92.76
36598;BME280;22607;49.550;11.940;2023-04-05T03:26:28;97344.06;;;-2.29;92.61
36598;BME280;22607;49.550;11.940;2023-04-05T03:28:54;97345.22;;;-2.34;92.35
36598;BME280;22607;49.550;11.940;2023-04-05T03:31:21;97343.84;;;-2.42;92.18
36598;BME280;22607;49.550;11.940;2023-04-05T03:33:47;97345.59;;;-2.42;92.86
36598;BME280;22607;49.550;11.940;2023-04-05T03:36:14;97341.28;;;-2.42;92.97
36598;BME280;22607;49.550;11.940;2023-04-05T03:38:45;97350.16;;;-2.47;94.03
36598;BME280;22607;49.550;11.940;2023-04-05T03:41:11;97354.47;;;-2.48;93.43
36598;BME280;22607;49.550;11.940;2023-04-05T03:43:38;97347.78;;;-2.52;94.55
36598;BME280;22607;49.550;11.940;2023-04-05T03:46:04;97351.50;;;-2.58;95.48
36598;BME280;22607;49.550;11.940;2023-04-05T03:48:31;97344.03;;;-2.62;95.18
36598;BME280;22607;49.550;11.940;2023-04-05T03:50:57;97347.19;;;-2.57;96.17
36598;BME280;22607;49.550;11.940;2023-04-05T03:53:24;97348.41;;;-2.47;96.57
36598;BME280;22607;49.550;11.940;2023-04-05T03:55:51;97348.25;;;-2.44;96.79
36598;BME280;22607;49.550;11.940;2023-04-05T03:58:20;97349.91;;;-2.43;97.11
36598;BME280;22607;49.550;11.940;2023-04-05T04:00:48;97350.22;;;-2.49;96.77
36598;BME280;22607;49.550;11.940;2023-04-05T04:03:15;97346.44;;;-2.59;96.27
36598;BME280;22607;49.550;11.940;2023-04-05T04:05:42;97341.06;;;-2.72;98.89
36598;BME280;22607;49.550;11.940;2023-04-05T04:08:09;97338.03;;;-2.63;100.00
36598;BME280;22607;49.550;11.940;2023-04-05T04:10:36;97345.16;;;-2.68;99.65
36598;BME280;22607;49.550;11.940;2023-04-05T04:13:02;97342.84;;;-2.73;99.56
36598;BME280;22607;49.550;11.940;2023-04-05T04:15:29;97340.56;;;-2.79;99.19
36598;BME280;22607;49.550;11.940;2023-04-05T04:17:56;97334.66;;;-2.81;100.00
36598;BME280;22607;49.550;11.940;2023-04-05T04:20:23;97320.16;;;-2.82;100.00
36598;BME280;22607;49.550;11.940;2023-04-05T04:22:49;97338.59;;;-2.92;100.00
36598;BME280;22607;49.550;11.940;2023-04-05T04:25:19;97338.06;;;-2.98;100.00
36598;BME280;22607;49.550;11.940;2023-04-05T04:27:46;97342.44;;;-3.00;100.00
36598;BME280;22607;49.550;11.940;2023-04-05T04:30:13;97341.38;;;-2.96;100.00
36598;BME280;22607;49.550;11.940;2023-04-05T04:32:41;97335.25;;;-2.94;100.00
36598;BME280;22607;49.550;11.940;2023-04-05T04:35:20;97341.00;;;-2.88;100.00
36598;BME280;22607;49.550;11.940;2023-04-05T04:37:52;97337.69;;;-2.91;100.00
36598;BME280;22607;49.550;11.940;2023-04-05T04:40:20;97334.94;;;-2.87;100.00
36598;BME280;22607;49.550;11.940;2023-04-05T04:42:48;97341.69;;;-2.85;99.41
36598;BME280;22607;49.550;11.940;2023-04-05T04:45:15;97338.88;;;-2.80;99.85
36598;BME280;22607;49.550;11.940;2023-04-05T04:47:44;97337.16;;;-2.80;100.00
36598;BME280;22607;49.550;11.940;2023-04-05T04:50:14;97339.56;;;-2.77;99.64
36598;BME280;22607;49.550;11.940;2023-04-05T04:52:41;97341.00;;;-2.71;98.78
36598;BME280;22607;49.550;11.940;2023-04-05T04:55:09;97345.75;;;-2.63;97.49
36598;BME280;22607;49.550;11.940;2023-04-05T04:57:35;97344.78;;;-2.60;99.05
36598;BME280;22607;49.550;11.940;2023-04-05T05:00:02;97342.53;;;-2.67;99.63
36598;BME280;22607;49.550;11.940;2023-04-05T05:02:33;97338.97;;;-2.64;100.00
36598;BME280;22607;49.550;11.940;2023-04-05T05:04:59;97344.09;;;-2.64;98.96
36598;BME280;22607;49.550;11.940;2023-04-05T05:07:26;97346.44;;;-2.59;100.00
36598;BME280;22607;49.550;11.940;2023-04-05T05:09:53;97349.25;;;-2.46;98.37
36598;BME280;22607;49.550;11.940;2023-04-05T05:12:20;97351.50;;;-2.40;98.64
36598;BME280;22607;49.550;11.940;2023-04-05T05:14:47;97353.09;;;-1.88;95.73
36598;BME280;22607;49.550;11.940;2023-04-05T05:17:14;97343.53;;;-1.21;90.69
36598;BME280;22607;49.550;11.940;2023-04-05T05:19:40;97349.31;;;-1.01;87.06
36598;BME280;22607;49.550;11.940;2023-04-05T05:22:07;97355.53;;;-0.75;84.22
36598;BME280;22607;49.550;11.940;2023-04-05T05:24:33;97349.25;;;-0.85;83.87
36598;BME280;22607;49.550;11.940;2023-04-05T05:27:00;97348.53;;;-1.18;84.92
36598;BME280;22607;49.550;11.940;2023-04-05T05:29:26;97351.19;;;-1.36;87.92
36598;BME280;22607;49.550;11.940;2023-04-05T05:31:53;97355.94;;;-1.44;89.26
36598;BME280;22607;49.550;11.940;2023-04-05T05:34:20;97357.44;;;-1.40;88.66
36598;BME280;22607;49.550;11.940;2023-04-05T05:36:47;97354.19;;;-1.27;88.97
36598;BME280;22607;49.550;11.940;2023-04-05T05:39:14;97360.22;;;-1.12;87.45
36598;BME280;22607;49.550;11.940;2023-04-05T05:41:42;97361.31;;;-1.00;87.99
36598;BME280;22607;49.550;11.940;2023-04-05T05:44:09;97353.25;;;-0.80;84.38
36598;BME280;22607;49.550;11.940;2023-04-05T05:46:36;97354.78;;;-0.91;82.46
36598;BME280;22607;49.550;11.940;2023-04-05T05:49:03;97360.84;;;-1.23;87.68
36598;BME280;22607;49.550;11.940;2023-04-05T05:51:29;97361.72;;;-1.08;89.47
36598;BME280;22607;49.550;11.940;2023-04-05T05:53:57;97367.03;;;-0.95;86.72
36598;BME280;22607;49.550;11.940;2023-04-05T05:56:24;97367.03;;;-0.95;88.41
36598;BME280;22607;49.550;11.940;2023-04-05T05:58:50;97368.84;;;-0.97;88.37
36598;BME280;22607;49.550;11.940;2023-04-05T06:01:18;97368.25;;;-0.86;87.79
36598;BME280;22607;49.550;11.940;2023-04-05T06:03:48;97368.44;;;-0.75;86.98
36598;BME280;22607;49.550;11.940;2023-04-05T06:06:15;97369.38;;;-0.76;88.30
36598;BME280;22607;49.550;11.940;2023-04-05T06:08:42;97360.72;;;-0.75;87.06
36598;BME280;22607;49.550;11.940;2023-04-05T06:11:18;97354.38;;;-0.69;84.77
36598;BME280;22607;49.550;11.940;2023-04-05T06:13:47;97369.25;;;-0.44;84.17
36598;BME280;22607;49.550;11.940;2023-04-05T06:16:13;97369.19;;;-0.28;81.35
36598;BME280;22607;49.550;11.940;2023-04-05T06:18:40;97363.31;;;-0.15;79.97
36598;BME280;22607;49.550;11.940;2023-04-05T06:21:07;97374.75;;;-0.05;78.95
36598;BME280;22607;49.550;11.940;2023-04-05T06:23:33;97368.63;;;-0.04;80.59
36598;BME280;22607;49.550;11.940;2023-04-05T06:26:00;97367.91;;;-0.06;77.15
36598;BME280;22607;49.550;11.940;2023-04-05T06:28:26;97366.06;;;-0.04;75.93
36598;BME280;22607;49.550;11.940;2023-04-05T06:30:56;97357.22;;;0.01;75.87
36598;BME280;22607;49.550;11.940;2023-04-05T06:33:23;97365.13;;;-0.03;74.25
36598;BME280;22607;49.550;11.940;2023-04-05T06:35:50;97368.38;;;0.01;75.59
36598;BME280;22607;49.550;11.940;2023-04-05T06:38:17;97359.63;;;0.04;74.23
36598;BME280;22607;49.550;11.940;2023-04-05T06:40:43;97356.38;;;-0.15;73.70
36598;BME280;22607;49.550;11.940;2023-04-05T06:43:11;97370.31;;;0.12;74.81
36598;BME280;22607;49.550;11.940;2023-04-05T06:45:37;97359.22;;;0.24;73.66
36598;BME280;22607;49.550;11.940;2023-04-05T06:48:04;97365.75;;;0.30;73.81
36598;BME280;22607;49.550;11.940;2023-04-05T06:50:31;97371.94;;;0.42;71.96
36598;BME280;22607;49.550;11.940;2023-04-05T06:52:57;97362.97;;;0.48;72.84
36598;BME280;22607;49.550;11.940;2023-04-05T06:55:24;97364.06;;;0.58;70.89
36598;BME280;22607;49.550;11.940;2023-04-05T06:57:50;97362.25;;;0.73;72.37
36598;BME280;22607;49.550;11.940;2023-04-05T07:00:17;97353.88;;;0.97;69.53
36598;BME280;22607;49.550;11.940;2023-04-05T07:02:44;97352.66;;;1.16;67.66
36598;BME280;22607;49.550;11.940;2023-04-05T07:05:11;97355.69;;;1.36;65.94
36598;BME280;22607;49.550;11.940;2023-04-05T07:07:39;97352.59;;;1.43;65.61
36598;BME280;22607;49.550;11.940;2023-04-05T07:10:06;97350.53;;;1.88;62.84
36598;BME280;22607;49.550;11.940;2023-04-05T07:12:33;97350.97;;;1.94;63.54
36598;BME280;22607;49.550;11.940;2023-04-05T07:14:59;97349.88;;;2.23;61.66
36598;BME280;22607;49.550;11.940;2023-04-05T07:17:26;97340.81;;;2.42;60.88
36598;BME280;22607;49.550;11.940;2023-04-05T07:19:53;97339.97;;;3.14;60.08
36598;BME280;22607;49.550;11.940;2023-04-05T07:22:19;97343.03;;;3.08;59.29
36598;BME280;22607;49.550;11.940;2023-04-05T07:24:46;97339.19;;;2.89;58.94
36598;BME280;22607;49.550;11.940;2023-04-05T07:27:14;97332.16;;;3.03;59.16
36598;BME280;22607;49.550;11.940;2023-04-05T07:29:41;97336.97;;;3.32;59.17
36598;BME280;22607;49.550;11.940;2023-04-05T07:32:10;97344.38;;;3.73;58.01
36598;BME280;22607;49.550;11.940;2023-04-05T07:34:37;97333.41;;;4.03;56.90
36598;BME280;22607;49.550;11.940;2023-04-05T07:37:04;97334.41;;;5.23;54.77
36598;BME280;22607;49.550;11.940;2023-04-05T07:39:32;97334.28;;;5.68;53.82
36598;BME280;22607;49.550;11.940;2023-04-05T07:41:59;97331.75;;;6.60;52.97
36598;BME280;22607;49.550;11.940;2023-04-05T07:44:25;97329.88;;;7.01;49.94
36598;BME280;22607;49.550;11.940;2023-04-05T07:46:52;97330.97;;;7.38;47.40
36598;BME280;22607;49.550;11.940;2023-04-05T07:49:23;97322.38;;;7.66;46.68
36598;BME280;22607;49.550;11.940;2023-04-05T07:51:53;97321.69;;;8.01;46.63
36598;BME280;22607;49.550;11.940;2023-04-05T07:54:20;97316.63;;;8.28;48.28
36598;BME280;22607;49.550;11.940;2023-04-05T07:56:46;97315.97;;;8.54;44.73
36598;BME280;22607;49.550;11.940;2023-04-05T07:59:15;97314.50;;;8.13;43.23
36598;BME280;22607;49.550;11.940;2023-04-05T08:01:42;97318.16;;;7.93;43.15
36598;BME280;22607;49.550;11.940;2023-04-05T08:04:08;97320.94;;;7.81;42.52
36598;BME280;22607;49.550;11.940;2023-04-05T08:06:36;97313.94;;;7.72;42.12
36598;BME280;22607;49.550;11.940;2023-04-05T08:09:04;97312.44;;;7.79;42.11
36598;BME280;22607;49.550;11.940;2023-04-05T08:11:31;97302.28;;;8.04;42.61
36598;BME280;22607;49.550;11.940;2023-04-05T08:13:59;97306.53;;;8.33;40.94
36598;BME280;22607;49.550;11.940;2023-04-05T08:16:26;97304.31;;;8.38;40.11
36598;BME280;22607;49.550;11.940;2023-04-05T08:18:53;97300.13;;;8.46;38.12
36598;BME280;22607;49.550;11.940;2023-04-05T08:21:21;97297.03;;;8.60;39.47
36598;BME280;22607;49.550;11.940;2023-04-05T08:23:48;97299.75;;;8.69;38.22
36598;BME280;22607;49.550;11.940;2023-04-05T08:26:17;97305.66;;;8.43;36.48
36598;BME280;22607;49.550;11.940;2023-04-05T08:28:44;97298.13;;;8.39;37.71
36598;BME280;22607;49.550;11.940;2023-04-05T08:31:10;97291.63;;;8.16;38.31
36598;BME280;22607;49.550;11.940;2023-04-05T08:33:39;97293.94;;;8.19;37.99
36598;BME280;22607;49.550;11.940;2023-04-05T08:36:07;97292.88;;;7.83;38.19
36598;BME280;22607;49.550;11.940;2023-04-05T08:38:34;97283.97;;;8.04;37.91
36598;BME280;22607;49.550;11.940;2023-04-05T08:41:17;97285.59;;;8.98;37.58
36598;BME280;22607;49.550;11.940;2023-04-05T08:43:51;97292.69;;;9.24;36.67
36598;BME280;22607;49.550;11.940;2023-04-05T08:46:21;97284.56;;;8.90;35.51
36598;BME280;22607;49.550;11.940;2023-04-05T08:48:48;97294.19;;;9.53;36.80
36598;BME280;22607;49.550;11.940;2023-04-05T08:51:22;97289.00;;;9.61;34.53
36598;BME280;22607;49.550;11.940;2023-04-05T08:53:50;97288.50;;;9.13;33.52
36598;BME280;22607;49.550;11.940;2023-04-05T08:56:26;97284.84;;;9.24;34.29
36598;BME280;22607;49.550;11.940;2023-04-05T09:01:29;97289.25;;;8.22;34.44
36598;BME280;22607;49.550;11.940;2023-04-05T09:03:59;97293.53;;;9.06;34.30
36598;BME280;22607;49.550;11.940;2023-04-05T09:06:27;97286.97;;;9.47;33.88
36598;BME280;22607;49.550;11.940;2023-04-05T09:08:56;97282.88;;;9.52;36.02
36598;BME280;22607;49.550;11.940;2023-04-05T09:11:23;97285.97;;;9.48;33.22
36598;BME280;22607;49.550;11.940;2023-04-05T09:13:50;97284.03;;;9.76;34.35
36598;BME280;22607;49.550;11.940;2023-04-05T09:16:18;97281.69;;;10.08;33.43
36598;BME280;22607;49.550;11.940;2023-04-05T09:18:46;97281.81;;;9.98;32.60
36598;BME280;22607;49.550;11.940;2023-04-05T09:21:12;97275.94;;;9.43;32.08
36598;BME280;22607;49.550;11.940;2023-04-05T09:23:50;97270.13;;;9.31;34.25
36598;BME280;22607;49.550;11.940;2023-04-05T09:26:19;97264.81;;;10.10;32.88
36598;BME280;22607;49.550;11.940;2023-04-05T09:28:47;97264.63;;;10.04;31.89
36598;BME280;22607;49.550;11.940;2023-04-05T09:31:31;97277.47;;;9.80;33.17
36598;BME280;22607;49.550;11.940;2023-04-05T09:33:58;97272.44;;;9.95;32.20
36598;BME280;22607;49.550;11.940;2023-04-05T09:36:26;97265.56;;;9.94;33.38
36598;BME280;22607;49.550;11.940;2023-04-05T09:39:04;97272.50;;;9.42;33.05
36598;BME280;22607;49.550;11.940;2023-04-05T09:41:31;97264.38;;;9.54;32.34
36598;BME280;22607;49.550;11.940;2023-04-05T09:43:57;97259.63;;;9.84;31.31
36598;BME280;22607;49.550;11.940;2023-04-05T09:46:30;97266.25;;;10.05;30.93
36598;BME280;22607;49.550;11.940;2023-04-05T09:48:57;97253.44;;;10.45;31.87
36598;BME280;22607;49.550;11.940;2023-04-05T09:51:31;97265.38;;;10.31;31.48
36598;BME280;22607;49.550;11.940;2023-04-05T09:56:29;97262.16;;;10.02;34.02
36598;BME280;22607;49.550;11.940;2023-04-05T09:59:15;97248.97;;;10.37;30.84
36598;BME280;22607;49.550;11.940;2023-04-05T10:01:50;97260.16;;;9.61;32.76
36598;BME280;22607;49.550;11.940;2023-04-05T10:04:19;97254.91;;;9.61;32.39
36598;BME280;22607;49.550;11.940;2023-04-05T10:06:47;97258.69;;;9.93;31.43
36598;BME280;22607;49.550;11.940;2023-04-05T10:09:14;97258.19;;;9.98;30.47
36598;BME280;22607;49.550;11.940;2023-04-05T10:11:43;97260.28;;;10.29;31.04
36598;BME280;22607;49.550;11.940;2023-04-05T10:14:11;97258.97;;;10.33;31.27
36598;BME280;22607;49.550;11.940;2023-04-05T10:16:44;97257.69;;;9.94;31.20
36598;BME280;22607;49.550;11.940;2023-04-05T10:19:50;97248.50;;;9.90;30.63
36598;BME280;22607;49.550;11.940;2023-04-05T10:22:48;97249.81;;;9.94;31.64
36598;BME280;22607;49.550;11.940;2023-04-05T10:25:39;97250.13;;;9.83;31.44
36598;BME280;22607;49.550;11.940;2023-04-05T10:28:11;97248.94;;;10.20;31.33
36598;BME280;22607;49.550;11.940;2023-04-05T10:30:39;97240.72;;;10.83;31.73
36598;BME280;22607;49.550;11.940;2023-04-05T10:33:10;97240.31;;;10.45;30.78
36598;BME280;22607;49.550;11.940;2023-04-05T10:35:42;97253.63;;;9.65;31.63
36598;BME280;22607;49.550;11.940;2023-04-05T10:40:47;97234.94;;;10.80;31.03
36598;BME280;22607;49.550;11.940;2023-04-05T10:43:18;97238.38;;;10.47;29.71
36598;BME280;22607;49.550;11.940;2023-04-05T10:45:44;97231.59;;;10.36;30.48
36598;BME280;22607;49.550;11.940;2023-04-05T10:50:58;97234.50;;;10.24;32.79
36598;BME280;22607;49.550;11.940;2023-04-05T10:53:25;97233.97;;;10.97;32.21
36598;BME280;22607;49.550;11.940;2023-04-05T10:55:52;97230.50;;;10.72;30.39
36598;BME280;22607;49.550;11.940;2023-04-05T11:00:50;97224.09;;;10.74;31.12
36598;BME280;22607;49.550;11.940;2023-04-05T11:08:42;97229.13;;;9.91;33.12
36598;BME280;22607;49.550;11.940;2023-04-05T11:11:12;97224.59;;;10.02;32.02
36598;BME280;22607;49.550;11.940;2023-04-05T11:14:02;97226.47;;;10.26;30.99
36598;BME280;22607;49.550;11.940;2023-04-05T11:16:37;97232.13;;;9.62;32.50
36598;BME280;22607;49.550;11.940;2023-04-05T11:19:04;97218.09;;;10.22;33.75
36598;BME280;22607;49.550;11.940;2023-04-05T11:21:30;97221.94;;;10.45;32.98
36598;BME280;22607;49.550;11.940;2023-04-05T11:29:06;97222.84;;;9.76;34.12
36598;BME280;22607;49.550;11.940;2023-04-05T11:31:33;97226.84;;;9.27;33.50
36598;BME280;22607;49.550;11.940;2023-04-05T11:34:02;97232.50;;;9.40;34.92
36598;BME280;22607;49.550;11.940;2023-04-05T11:36:38;97230.34;;;9.62;34.25
36598;BME280;22607;49.550;11.940;2023-04-05T11:44:24;97217.50;;;10.62;32.47
36598;BME280;22607;49.550;11.940;2023-04-05T11:46:51;97210.53;;;10.19;32.88
36598;BME280;22607;49.550;11.940;2023-04-05T11:49:18;97205.06;;;10.72;35.49
36598;BME280;22607;49.550;11.940;2023-04-05T11:51:46;97212.72;;;10.32;33.85
36598;BME280;22607;49.550;11.940;2023-04-05T11:54:26;97216.25;;;9.37;33.73
36598;BME280;22607;49.550;11.940;2023-04-05T11:56:53;97213.25;;;9.58;33.66
36598;BME280;22607;49.550;11.940;2023-04-05T11:59:21;97214.88;;;9.51;33.83
36598;BME280;22607;49.550;11.940;2023-04-05T12:02:03;97206.72;;;10.05;33.86
36598;BME280;22607;49.550;11.940;2023-04-05T12:04:31;97213.50;;;10.33;35.89
36598;BME280;22607;49.550;11.940;2023-04-05T12:07:07;97202.66;;;9.68;33.34
36598;BME280;22607;49.550;11.940;2023-04-05T12:09:35;97211.03;;;9.10;33.85
36598;BME280;22607;49.550;11.940;2023-04-05T12:12:01;97200.03;;;9.33;32.76
36598;BME280;22607;49.550;11.940;2023-04-05T12:14:28;97199.59;;;9.46;33.10
36598;BME280;22607;49.550;11.940;2023-04-05T12:16:54;97195.94;;;9.65;34.69
36598;BME280;22607;49.550;11.940;2023-04-05T12:19:21;97197.31;;;9.86;32.90
36598;BME280;22607;49.550;11.940;2023-04-05T12:21:48;97180.19;;;9.65;32.11
36598;BME280;22607;49.550;11.940;2023-04-05T12:24:14;97195.81;;;9.14;34.81
36598;BME280;22607;49.550;11.940;2023-04-05T12:26:40;97187.38;;;9.28;34.60
36598;BME280;22607;49.550;11.940;2023-04-05T12:29:07;97179.63;;;9.96;34.49
36598;BME280;22607;49.550;11.940;2023-04-05T12:31:42;97182.16;;;10.31;31.76
36598;BME280;22607;49.550;11.940;2023-04-05T12:34:09;97173.38;;;10.49;32.44
36598;BME280;22607;49.550;11.940;2023-04-05T12:36:36;97164.97;;;10.37;30.38
36598;BME280;22607;49.550;11.940;2023-04-05T12:39:07;97168.53;;;10.11;31.10
36598;BME280;22607;49.550;11.940;2023-04-05T12:41:34;97164.91;;;10.04;31.91
36598;BME280;22607;49.550;11.940;2023-04-05T12:44:05;97171.72;;;9.80;31.96
36598;BME280;22607;49.550;11.940;2023-04-05T12:46:37;97170.69;;;9.64;33.15
36598;BME280;22607;49.550;11.940;2023-04-05T12:49:04;97159.97;;;10.01;33.29
36598;BME280;22607;49.550;11.940;2023-04-05T12:51:31;97167.47;;;9.87;31.95
36598;BME280;22607;49.550;11.940;2023-04-05T12:54:00;97157.47;;;9.82;32.47
36598;BME280;22607;49.550;11.940;2023-04-05T12:56:29;97160.06;;;9.74;32.47
36598;BME280;22607;49.550;11.940;2023-04-05T12:58:56;97157.25;;;9.32;32.87
36598;BME280;22607;49.550;11.940;2023-04-05T13:01:22;97161.53;;;9.07;32.92
36598;BME280;22607;49.550;11.940;2023-04-05T13:03:48;97161.09;;;8.85;34.41
36598;BME280;22607;49.550;11.940;2023-04-05T13:06:22;97157.38;;;8.96;33.67
36598;BME280;22607;49.550;11.940;2023-04-05T13:08:49;97156.19;;;8.64;34.37
36598;BME280;22607;49.550;11.940;2023-04-05T13:11:16;97149.66;;;8.68;36.52
36598;BME280;22607;49.550;11.940;2023-04-05T13:13:42;97152.03;;;9.06;35.53
36598;BME280;22607;49.550;11.940;2023-04-05T13:16:09;97147.59;;;8.80;33.86
36598;BME280;22607;49.550;11.940;2023-04-05T13:18:35;97151.09;;;8.62;35.14
36598;BME280;22607;49.550;11.940;2023-04-05T13:21:02;97160.88;;;8.78;34.48
36598;BME280;22607;49.550;11.940;2023-04-05T13:23:33;97150.66;;;8.93;33.59
36598;BME280;22607;49.550;11.940;2023-04-05T13:26:00;97154.59;;;8.98;36.14
36598;BME280;22607;49.550;11.940;2023-04-05T13:28:26;97145.97;;;9.32;35.69
36598;BME280;22607;49.550;11.940;2023-04-05T13:30:53;97129.69;;;9.55;34.79
36598;BME280;22607;49.550;11.940;2023-04-05T13:33:19;97140.22;;;9.71;34.28
36598;BME280;22607;49.550;11.940;2023-04-05T13:35:46;97128.94;;;9.79;34.59